Time;durP1;ratioP1;P1;durP2;ratioP2;P2;SDS_P1;SDS_P2;PMS_P1;PMS_P2;Temp;Humidity;BMP_temperature;BMP_pressure;BME280_temperature;BME280_humidity;BME280_pressure;Samples;Min_cycle;Max_cycle;Signal;HPM_P1;HPM_P2
2021/08/15 00:01:15;;;;;;;0.50;0.30;;;16.80;99.90;;;;;;5078036;28;20444;-86
2021/08/15 00:03:42;;;;;;;0.97;0.93;;;16.80;99.90;;;;;;5079367;28;20449;-86
2021/08/15 00:06:09;;;;;;;1.93;1.83;;;16.90;99.90;;;;;;5078346;28;20445;-85
2021/08/15 00:08:38;;;;;;;0.50;0.30;;;17.00;99.90;;;;;;5078018;28;20954;-86
2021/08/15 00:11:05;;;;;;;0.50;0.40;;;17.00;99.90;;;;;;5078161;28;20440;-82
2021/08/15 00:13:32;;;;;;;2.73;2.53;;;17.00;99.90;;;;;;5077710;28;20474;-85
2021/08/15 00:15:59;;;;;;;1.73;0.60;;;17.10;99.90;;;;;;5078301;28;20436;-85
2021/08/15 00:18:26;;;;;;;0.90;0.70;;;17.10;99.90;;;;;;5077375;28;20563;-85
2021/08/15 00:20:53;;;;;;;0.50;0.40;;;17.10;99.90;;;;;;5090678;28;20433;-86
2021/08/15 00:23:19;;;;;;;0.50;0.30;;;17.10;99.90;;;;;;5085776;28;20456;-85
2021/08/15 00:25:48;;;;;;;0.50;0.50;;;17.10;99.90;;;;;;5081657;28;20441;-86
2021/08/15 00:28:14;;;;;;;0.50;0.30;;;17.10;99.90;;;;;;5080598;28;20425;-85
2021/08/15 00:30:41;;;;;;;0.50;0.50;;;17.10;99.90;;;;;;5081339;28;20935;-86
2021/08/15 00:33:08;;;;;;;0.50;0.40;;;17.10;99.90;;;;;;5080954;28;20502;-86
2021/08/15 00:35:35;;;;;;;0.50;0.40;;;17.10;99.90;;;;;;5081660;28;20437;-85
2021/08/15 00:38:02;;;;;;;0.50;0.37;;;17.10;99.90;;;;;;5081394;28;20433;-86
2021/08/15 00:40:28;;;;;;;2.00;1.90;;;17.00;99.90;;;;;;5080604;28;20436;-86
2021/08/15 00:42:57;;;;;;;0.50;0.30;;;17.10;99.90;;;;;;5080707;28;20441;-85
2021/08/15 00:45:23;;;;;;;3.47;0.60;;;17.00;99.90;;;;;;5081697;28;20513;-86
2021/08/15 00:47:50;;;;;;;0.97;0.97;;;17.00;99.90;;;;;;5080909;28;20441;-86
2021/08/15 00:50:19;;;;;;;1.27;1.27;;;17.00;99.90;;;;;;5080991;28;20440;-85
2021/08/15 00:52:46;;;;;;;1.27;1.17;;;17.00;99.90;;;;;;5081431;28;20468;-86
2021/08/15 00:55:13;;;;;;;1.97;0.87;;;17.00;99.90;;;;;;5080487;28;20456;-86
2021/08/15 00:57:42;;;;;;;1.23;1.23;;;17.00;99.90;;;;;;5080981;28;20441;-85
2021/08/15 01:00:13;;;;;;;0.50;0.40;;;17.10;99.90;;;;;;5080948;28;20436;-84
2021/08/15 01:02:40;;;;;;;0.80;0.80;;;17.10;99.90;;;;;;5081178;28;20783;-86
2021/08/15 01:05:08;;;;;;;0.50;0.37;;;17.10;99.90;;;;;;5079162;28;20539;-85
2021/08/15 01:07:35;;;;;;;0.50;0.30;;;17.10;99.90;;;;;;5078610;28;20455;-84
2021/08/15 01:10:02;;;;;;;0.50;0.40;;;17.10;99.90;;;;;;5078435;28;20523;-84
2021/08/15 01:12:29;;;;;;;0.50;0.40;;;17.10;99.90;;;;;;5079322;28;20451;-85
2021/08/15 01:14:57;;;;;;;2.10;1.90;;;17.10;99.90;;;;;;5079116;28;20458;-83
2021/08/15 01:17:26;;;;;;;2.50;1.80;;;17.10;99.90;;;;;;5078687;28;20433;-85
2021/08/15 01:19:54;;;;;;;0.57;0.53;;;17.20;99.90;;;;;;5078587;28;20467;-86
2021/08/15 01:22:21;;;;;;;5.23;2.13;;;17.10;99.90;;;;;;5078812;28;20467;-87
2021/08/15 01:24:48;;;;;;;0.60;0.50;;;17.20;99.90;;;;;;5078712;28;20457;-85
2021/08/15 01:27:15;;;;;;;0.50;0.40;;;17.20;99.90;;;;;;5079397;28;20440;-85
2021/08/15 01:29:44;;;;;;;0.50;0.40;;;17.20;99.90;;;;;;5080030;28;20508;-85
2021/08/15 01:32:12;;;;;;;0.50;0.40;;;17.20;99.90;;;;;;5078913;28;20441;-85
2021/08/15 01:34:38;;;;;;;0.50;0.30;;;17.30;99.90;;;;;;5079293;28;20481;-85
2021/08/15 01:37:07;;;;;;;0.50;0.30;;;17.30;99.90;;;;;;5079994;28;20454;-85
2021/08/15 01:39:34;;;;;;;0.50;0.40;;;17.30;99.90;;;;;;5079983;28;20812;-86
2021/08/15 01:42:01;;;;;;;0.70;0.60;;;17.30;99.90;;;;;;5079365;28;20532;-86
2021/08/15 01:44:27;;;;;;;0.90;0.77;;;17.30;99.90;;;;;;5078771;28;20460;-85
2021/08/15 01:46:55;;;;;;;0.93;0.93;;;17.20;99.90;;;;;;5078334;28;20440;-85
2021/08/15 01:49:22;;;;;;;0.50;0.40;;;17.20;99.90;;;;;;5079572;28;20437;-85
2021/08/15 01:51:49;;;;;;;2.83;2.63;;;17.20;99.90;;;;;;5079350;28;20510;-86
2021/08/15 01:54:16;;;;;;;3.50;3.17;;;17.20;99.90;;;;;;5079667;28;20522;-86
2021/08/15 01:56:43;;;;;;;0.93;0.93;;;17.20;99.90;;;;;;5077646;28;20443;-84
2021/08/15 01:59:09;;;;;;;0.50;0.30;;;17.10;99.90;;;;;;5078312;28;20437;-86
2021/08/15 02:01:36;;;;;;;1.13;1.13;;;17.10;99.90;;;;;;5077759;28;20443;-86
2021/08/15 02:04:04;;;;;;;0.50;0.30;;;17.10;99.90;;;;;;5078350;28;20452;-85
2021/08/15 02:06:31;;;;;;;5.60;1.73;;;17.10;99.90;;;;;;5078295;28;20700;-85
2021/08/15 02:08:58;;;;;;;0.50;0.40;;;17.10;99.90;;;;;;5078043;28;20452;-85
2021/08/15 02:11:25;;;;;;;2.20;1.40;;;17.10;99.90;;;;;;5077843;28;20885;-85
2021/08/15 02:13:52;;;;;;;0.50;0.40;;;17.10;99.90;;;;;;5078357;28;20846;-85
2021/08/15 02:16:18;;;;;;;0.63;0.60;;;17.10;99.90;;;;;;5076543;28;20436;-85
2021/08/15 02:18:45;;;;;;;5.07;2.80;;;17.10;99.90;;;;;;5080437;28;20436;-86
2021/08/15 02:21:13;;;;;;;0.50;0.30;;;17.20;99.90;;;;;;5082125;28;20432;-85
2021/08/15 02:23:40;;;;;;;0.50;0.40;;;17.10;99.90;;;;;;5083380;28;20831;-85
2021/08/15 02:26:07;;;;;;;0.50;0.30;;;17.00;99.90;;;;;;5082321;28;20437;-85
2021/08/15 02:28:34;;;;;;;0.60;0.40;;;17.00;99.90;;;;;;5082930;28;20451;-86
2021/08/15 02:31:00;;;;;;;0.50;0.40;;;17.00;99.90;;;;;;5082384;28;20931;-85
2021/08/15 02:33:27;;;;;;;0.50;0.30;;;17.00;99.90;;;;;;5082500;28;20491;-86
2021/08/15 02:35:54;;;;;;;0.83;0.83;;;17.00;99.90;;;;;;5082497;28;20444;-86
2021/08/15 02:38:23;;;;;;;1.00;1.00;;;17.00;99.90;;;;;;5082193;28;20444;-85
2021/08/15 02:40:50;;;;;;;0.50;0.30;;;17.00;99.90;;;;;;5081371;28;20433;-87
2021/08/15 02:43:17;;;;;;;6.10;2.70;;;17.00;99.90;;;;;;5081919;28;20465;-86
2021/08/15 02:45:43;;;;;;;0.50;0.40;;;16.90;99.90;;;;;;5083426;28;20427;-85
2021/08/15 02:48:10;;;;;;;1.30;1.20;;;16.90;99.90;;;;;;5081865;28;20439;-87
2021/08/15 02:50:37;;;;;;;0.50;0.40;;;16.90;99.90;;;;;;5081688;28;20960;-86
2021/08/15 02:53:04;;;;;;;0.60;0.50;;;16.90;99.90;;;;;;5083082;28;20988;-84
2021/08/15 02:55:32;;;;;;;0.50;0.40;;;16.90;99.90;;;;;;5083070;28;20441;-85
2021/08/15 02:57:59;;;;;;;1.03;1.03;;;16.80;99.90;;;;;;5082177;28;20448;-86
2021/08/15 03:03:15;;;;;;;0.50;0.40;;;16.90;99.90;;;;;;5022948;28;20471;-84
2021/08/15 03:05:41;;;;;;;1.87;1.77;;;16.80;99.90;;;;;;5026682;28;20438;-85
2021/08/15 03:08:08;;;;;;;0.50;0.30;;;16.80;99.90;;;;;;5038913;28;20454;-85
2021/08/15 03:10:36;;;;;;;0.70;0.67;;;16.80;99.90;;;;;;5037959;28;20450;-83
2021/08/15 03:13:06;;;;;;;1.17;1.17;;;16.90;99.90;;;;;;5037975;28;20435;-85
2021/08/15 03:15:33;;;;;;;0.67;0.63;;;16.90;99.90;;;;;;5038621;28;20940;-85
2021/08/15 03:17:59;;;;;;;4.10;2.20;;;16.90;99.90;;;;;;5038311;28;20438;-85
2021/08/15 03:20:27;;;;;;;1.33;1.13;;;16.80;99.90;;;;;;5038212;28;20438;-85
2021/08/15 03:22:54;;;;;;;4.33;1.27;;;16.90;99.90;;;;;;5037845;28;20494;-85
2021/08/15 03:25:20;;;;;;;2.00;1.30;;;17.00;99.90;;;;;;5038156;28;20450;-84
2021/08/15 03:27:49;;;;;;;1.90;1.40;;;16.90;99.90;;;;;;5038332;28;20442;-84
2021/08/15 03:30:15;;;;;;;2.03;1.50;;;16.90;99.90;;;;;;5037723;28;20439;-83
2021/08/15 03:32:42;;;;;;;0.50;0.30;;;16.80;99.90;;;;;;5039221;28;20462;-84
2021/08/15 03:35:09;;;;;;;6.90;2.03;;;16.80;99.90;;;;;;5038113;28;21098;-83
2021/08/15 03:37:36;;;;;;;0.50;0.30;;;16.80;99.90;;;;;;5037198;28;20450;-84
2021/08/15 03:40:03;;;;;;;2.80;1.13;;;16.80;99.90;;;;;;5036645;28;20448;-84
2021/08/15 03:42:30;;;;;;;0.93;0.87;;;16.80;99.90;;;;;;5036967;28;20824;-83
2021/08/15 03:44:58;;;;;;;1.03;1.03;;;16.70;99.90;;;;;;5036426;28;20435;-85
2021/08/15 03:47:31;;;;;;;0.60;0.60;;;16.70;99.90;;;;;;5036955;28;20438;-84
2021/08/15 03:49:58;;;;;;;2.30;2.10;;;16.70;99.90;;;;;;5036356;28;20537;-83
2021/08/15 03:52:25;;;;;;;0.83;0.83;;;16.70;99.90;;;;;;5036208;28;20873;-84
2021/08/15 03:54:51;;;;;;;3.27;3.07;;;16.70;99.90;;;;;;5036109;28;21025;-84
2021/08/15 03:57:18;;;;;;;0.50;0.50;;;16.60;99.90;;;;;;5036622;28;20694;-84
2021/08/15 03:59:45;;;;;;;0.50;0.40;;;16.70;99.90;;;;;;5035864;28;20951;-84
2021/08/15 04:02:13;;;;;;;0.57;0.43;;;16.60;99.90;;;;;;5035979;28;20478;-84
2021/08/15 04:04:40;;;;;;;0.50;0.30;;;16.60;99.90;;;;;;5037038;28;20469;-86
2021/08/15 04:07:07;;;;;;;1.63;1.53;;;16.60;99.90;;;;;;5036284;28;20438;-85
2021/08/15 04:09:34;;;;;;;2.10;2.00;;;16.70;99.90;;;;;;5036570;28;20442;-86
2021/08/15 04:12:00;;;;;;;0.50;0.50;;;16.70;99.90;;;;;;5035795;28;20464;-85
2021/08/15 04:14:27;;;;;;;0.50;0.40;;;16.80;99.90;;;;;;5036397;28;20474;-87
2021/08/15 04:16:54;;;;;;;0.70;0.70;;;16.80;99.90;;;;;;5037098;28;20454;-86
2021/08/15 04:19:22;;;;;;;1.07;0.90;;;16.70;99.90;;;;;;5036263;28;20443;-85
2021/08/15 04:21:49;;;;;;;1.43;1.33;;;16.70;99.90;;;;;;5036143;28;21020;-85
2021/08/15 04:24:15;;;;;;;0.53;0.40;;;16.70;99.90;;;;;;5036171;28;20439;-86
2021/08/15 04:26:44;;;;;;;1.17;1.07;;;16.70;99.90;;;;;;5036491;28;20967;-86
2021/08/15 04:29:13;;;;;;;0.70;0.47;;;16.80;99.90;;;;;;5036779;28;20492;-86
2021/08/15 04:31:40;;;;;;;0.60;0.53;;;16.80;99.90;;;;;;5035789;28;21027;-86
2021/08/15 04:34:07;;;;;;;0.50;0.40;;;16.80;99.90;;;;;;5036392;28;20478;-85
2021/08/15 04:36:35;;;;;;;0.50;0.40;;;16.80;99.90;;;;;;5036016;28;20446;-84
2021/08/15 04:39:02;;;;;;;1.23;1.23;;;16.80;99.90;;;;;;5036182;28;20456;-86
2021/08/15 04:41:29;;;;;;;0.50;0.30;;;16.90;99.90;;;;;;5035176;28;20466;-86
2021/08/15 04:43:56;;;;;;;0.50;0.40;;;16.90;99.90;;;;;;5036188;28;20800;-87
2021/08/15 04:46:22;;;;;;;2.60;1.07;;;16.90;99.90;;;;;;5035724;28;20963;-86
2021/08/15 04:48:49;;;;;;;0.50;0.30;;;17.00;99.90;;;;;;5036602;28;20517;-84
2021/08/15 04:51:16;;;;;;;0.50;0.30;;;17.00;99.90;;;;;;5035400;28;20467;-87
2021/08/15 04:53:44;;;;;;;0.70;0.70;;;17.00;99.90;;;;;;5035444;28;20478;-85
2021/08/15 04:56:11;;;;;;;0.50;0.40;;;17.00;99.90;;;;;;5035687;28;20450;-86
2021/08/15 04:58:37;;;;;;;1.10;1.07;;;17.00;99.90;;;;;;5035793;28;20447;-86
2021/08/15 05:01:04;;;;;;;0.80;0.80;;;17.10;99.90;;;;;;5035553;28;20454;-86
2021/08/15 05:03:31;;;;;;;0.60;0.50;;;17.10;99.90;;;;;;5035664;28;20442;-86
2021/08/15 05:05:58;;;;;;;1.77;1.67;;;17.20;99.90;;;;;;5035565;28;20430;-85
2021/08/15 05:08:24;;;;;;;0.50;0.40;;;17.30;99.90;;;;;;5035810;28;20443;-85
2021/08/15 05:10:53;;;;;;;1.57;1.03;;;17.40;99.90;;;;;;5035484;28;20443;-85
2021/08/15 05:13:19;;;;;;;0.50;0.40;;;17.40;99.90;;;;;;5035271;28;20478;-87
2021/08/15 05:15:46;;;;;;;1.17;0.93;;;17.50;99.90;;;;;;5036115;28;20474;-87
2021/08/15 05:18:14;;;;;;;0.60;0.50;;;17.60;99.90;;;;;;5035162;28;20443;-86
2021/08/15 05:20:41;;;;;;;0.50;0.40;;;17.70;99.90;;;;;;5035224;28;20444;-86
2021/08/15 05:23:08;;;;;;;0.50;0.40;;;17.80;99.90;;;;;;5035582;28;20435;-85
2021/08/15 05:25:35;;;;;;;0.50;0.30;;;17.90;99.90;;;;;;5035500;28;20438;-85
2021/08/15 05:28:04;;;;;;;0.60;0.47;;;18.00;99.90;;;;;;5035402;28;20445;-86
2021/08/15 05:30:31;;;;;;;0.50;0.30;;;18.20;99.90;;;;;;5035599;28;20634;-86
2021/08/15 05:32:58;;;;;;;0.50;0.40;;;18.30;99.90;;;;;;5035395;28;20462;-86
2021/08/15 05:35:25;;;;;;;2.33;2.10;;;18.30;99.90;;;;;;5035697;28;20481;-86
2021/08/15 05:37:52;;;;;;;4.37;4.00;;;18.40;99.90;;;;;;5034971;28;20449;-86
2021/08/15 05:40:19;;;;;;;0.50;0.37;;;18.60;99.90;;;;;;5035247;28;20438;-86
2021/08/15 05:42:47;;;;;;;0.50;0.40;;;18.80;99.90;;;;;;5034918;28;20469;-86
2021/08/15 05:45:15;;;;;;;0.97;0.60;;;18.90;99.90;;;;;;5035566;28;20506;-86
2021/08/15 05:47:42;;;;;;;1.27;1.27;;;19.10;99.90;;;;;;5036103;28;20444;-86
2021/08/15 05:50:10;;;;;;;0.50;0.30;;;19.20;99.90;;;;;;5034984;28;20441;-86
2021/08/15 05:52:38;;;;;;;0.50;0.40;;;19.30;99.90;;;;;;5036770;28;20964;-87
2021/08/15 05:55:06;;;;;;;0.50;0.40;;;19.40;99.90;;;;;;5039786;28;20472;-87
2021/08/15 05:57:33;;;;;;;0.50;0.30;;;19.40;99.90;;;;;;5040635;28;20454;-87
2021/08/15 06:00:00;;;;;;;0.50;0.30;;;19.40;99.90;;;;;;5040395;28;20963;-85
2021/08/15 06:02:28;;;;;;;0.50;0.30;;;19.40;99.90;;;;;;5039323;28;20474;-87
2021/08/15 06:04:55;;;;;;;0.50;0.50;;;19.50;99.90;;;;;;5039756;28;20444;-86
2021/08/15 06:07:22;;;;;;;0.60;0.60;;;19.50;99.90;;;;;;5042088;28;20444;-87
2021/08/15 06:09:48;;;;;;;0.50;0.40;;;19.50;99.90;;;;;;5040243;28;20786;-86
2021/08/15 06:12:15;;;;;;;0.87;0.87;;;19.60;99.90;;;;;;5040183;28;20470;-86
2021/08/15 06:14:43;;;;;;;0.50;0.40;;;19.70;99.90;;;;;;5039897;28;20472;-83
2021/08/15 06:17:09;;;;;;;0.50;0.30;;;20.00;99.90;;;;;;5041172;28;20447;-86
2021/08/15 06:19:37;;;;;;;0.83;0.60;;;20.20;99.90;;;;;;5040207;28;20443;-87
2021/08/15 06:22:04;;;;;;;0.50;0.30;;;20.30;99.90;;;;;;5040393;28;21176;-86
2021/08/15 06:24:31;;;;;;;1.73;1.63;;;20.60;99.90;;;;;;5045673;28;20436;-87
2021/08/15 06:26:58;;;;;;;5.57;0.90;;;20.90;99.90;;;;;;5041060;28;20444;-87
2021/08/15 06:29:25;;;;;;;0.50;0.30;;;21.20;99.90;;;;;;5041022;28;20441;-86
2021/08/15 06:31:51;;;;;;;0.50;0.30;;;21.30;99.90;;;;;;5040244;28;20464;-87
2021/08/15 06:34:18;;;;;;;0.50;0.30;;;21.80;99.90;;;;;;5040362;28;20507;-84
2021/08/15 06:36:46;;;;;;;0.50;0.50;;;22.10;99.90;;;;;;5042207;28;20450;-84
2021/08/15 06:39:13;;;;;;;0.50;0.30;;;22.80;99.90;;;;;;5041906;28;20441;-87
2021/08/15 06:41:41;;;;;;;3.60;1.53;;;24.20;99.90;;;;;;5040643;28;20465;-87
2021/08/15 06:44:08;;;;;;;0.70;0.70;;;25.70;99.90;;;;;;5041264;28;20443;-88
2021/08/15 06:46:35;;;;;;;0.50;0.30;;;26.20;99.90;;;;;;5041295;28;20515;-86
2021/08/15 06:49:02;;;;;;;0.50;0.30;;;26.30;99.90;;;;;;5040883;28;20443;-87
2021/08/15 06:51:29;;;;;;;0.50;0.30;;;26.00;99.90;;;;;;5040252;28;20458;-87
2021/08/15 06:53:57;;;;;;;1.23;1.03;;;25.90;99.90;;;;;;5040772;28;20443;-87
2021/08/15 06:56:24;;;;;;;0.50;0.30;;;25.70;99.90;;;;;;5041994;28;20446;-87
2021/08/15 06:58:51;;;;;;;0.50;0.30;;;24.60;99.90;;;;;;5040816;28;20446;-86
2021/08/15 07:01:18;;;;;;;0.50;0.30;;;24.40;99.90;;;;;;5039754;28;20468;-86
2021/08/15 07:03:45;;;;;;;0.50;0.30;;;24.50;99.90;;;;;;5041466;28;20447;-87
2021/08/15 07:06:11;;;;;;;0.50;0.30;;;24.90;99.90;;;;;;5041917;28;20449;-87
2021/08/15 07:08:38;;;;;;;1.57;0.70;;;24.80;99.90;;;;;;5041474;28;20439;-87
2021/08/15 07:11:06;;;;;;;0.50;0.30;;;24.80;99.90;;;;;;5040634;28;20461;-86
2021/08/15 07:13:33;;;;;;;0.50;0.30;;;24.80;99.90;;;;;;5040369;28;20449;-86
2021/08/15 07:16:02;;;;;;;0.87;0.87;;;25.20;99.90;;;;;;5039528;28;20916;-87
2021/08/15 07:18:29;;;;;;;0.50;0.30;;;25.40;99.90;;;;;;5040086;28;20447;-87
2021/08/15 07:20:59;;;;;;;0.50;0.30;;;26.10;99.90;;;;;;5039535;28;21076;-87
2021/08/15 07:23:25;;;;;;;0.90;0.60;;;26.70;99.90;;;;;;5038800;28;20439;-87
2021/08/15 07:25:52;;;;;;;0.50;0.30;;;27.20;99.90;;;;;;5039880;28;20542;-88
2021/08/15 07:28:20;;;;;;;0.50;0.30;;;27.70;99.90;;;;;;5039968;28;20445;-87
2021/08/15 07:30:47;;;;;;;0.50;0.30;;;28.00;99.90;;;;;;5039970;28;20440;-87
2021/08/15 07:33:14;;;;;;;0.50;0.30;;;28.40;99.90;;;;;;5039544;28;20946;-87
2021/08/15 07:35:41;;;;;;;1.57;1.10;;;29.20;99.90;;;;;;5038911;28;20530;-87
2021/08/15 07:38:08;;;;;;;0.50;0.30;;;29.60;96.70;;;;;;5039049;28;20440;-87
2021/08/15 07:40:35;;;;;;;0.50;0.30;;;29.40;98.60;;;;;;5039174;28;20454;-87
2021/08/15 07:43:02;;;;;;;0.50;0.40;;;30.20;94.70;;;;;;5039463;28;20461;-88
2021/08/15 07:45:32;;;;;;;0.90;0.80;;;30.60;91.90;;;;;;5037951;28;20441;-87
2021/08/15 07:47:59;;;;;;;0.50;0.40;;;30.70;90.40;;;;;;5039798;28;20506;-87
2021/08/15 07:50:28;;;;;;;0.60;0.60;;;30.80;88.40;;;;;;5040296;28;20446;-87
2021/08/15 07:52:55;;;;;;;0.93;0.90;;;30.80;87.60;;;;;;5039847;28;20461;-87
2021/08/15 07:55:23;;;;;;;1.57;1.37;;;30.80;85.60;;;;;;5038851;28;20481;-87
2021/08/15 07:57:49;;;;;;;1.57;0.80;;;30.60;85.60;;;;;;5038078;28;20450;-86
2021/08/15 08:00:16;;;;;;;0.50;0.30;;;29.50;88.90;;;;;;5038200;28;20441;-86
2021/08/15 08:02:45;;;;;;;0.53;0.47;;;29.60;92.00;;;;;;5040422;28;20831;-87
2021/08/15 08:05:11;;;;;;;0.80;0.50;;;29.40;90.30;;;;;;5040986;28;20457;-87
2021/08/15 08:07:39;;;;;;;0.60;0.40;;;29.00;92.60;;;;;;5041110;28;20896;-87
2021/08/15 08:10:06;;;;;;;4.17;2.03;;;29.10;91.60;;;;;;5041270;28;20460;-85
2021/08/15 08:12:33;;;;;;;0.50;0.37;;;29.20;91.70;;;;;;5040307;28;20464;-88
2021/08/15 08:15:00;;;;;;;0.50;0.40;;;28.80;92.70;;;;;;5041241;28;20482;-87
2021/08/15 08:17:27;;;;;;;0.50;0.30;;;29.40;93.70;;;;;;5041752;28;20812;-87
2021/08/15 08:19:55;;;;;;;0.50;0.30;;;29.10;92.00;;;;;;5041186;28;21035;-87
2021/08/15 08:22:22;;;;;;;1.03;0.93;;;28.50;94.80;;;;;;5040691;28;20470;-88
2021/08/15 08:24:48;;;;;;;2.77;0.73;;;28.50;96.40;;;;;;5041715;28;20434;-87
2021/08/15 08:27:17;;;;;;;0.83;0.40;;;28.00;98.90;;;;;;5039444;28;20443;-87
2021/08/15 08:29:44;;;;;;;0.50;0.30;;;27.40;99.90;;;;;;5039772;28;20466;-87
2021/08/15 08:32:11;;;;;;;1.07;1.07;;;27.60;99.90;;;;;;5039079;28;20465;-87
2021/08/15 08:34:38;;;;;;;0.70;0.60;;;28.00;99.90;;;;;;5040146;28;20442;-86
2021/08/15 08:37:06;;;;;;;0.93;0.60;;;28.40;99.90;;;;;;5041076;28;20438;-87
2021/08/15 08:39:33;;;;;;;2.20;2.10;;;28.30;99.90;;;;;;5039755;28;20450;-87
2021/08/15 08:42:02;;;;;;;0.50;0.30;;;28.20;99.90;;;;;;5039436;28;20537;-86
2021/08/15 08:44:30;;;;;;;0.50;0.37;;;28.20;99.90;;;;;;5038526;28;20435;-86
2021/08/15 08:47:01;;;;;;;0.50;0.30;;;28.20;99.90;;;;;;5038634;28;20430;-86
2021/08/15 08:49:28;;;;;;;0.83;0.83;;;27.70;99.90;;;;;;5039348;28;20450;-86
2021/08/15 08:51:56;;;;;;;0.83;0.83;;;27.80;99.90;;;;;;5039351;28;20547;-86
2021/08/15 08:54:25;;;;;;;1.17;0.90;;;27.80;99.90;;;;;;5039935;28;20444;-86
2021/08/15 08:56:51;;;;;;;0.50;0.30;;;27.70;99.90;;;;;;5041140;28;20481;-86
2021/08/15 08:59:18;;;;;;;1.53;1.10;;;28.00;99.90;;;;;;5039841;28;20454;-87
2021/08/15 09:01:45;;;;;;;0.77;0.77;;;27.80;99.90;;;;;;5063838;22;20491;-84
2021/08/15 09:04:12;;;;;;;0.50;0.30;;;27.90;99.90;;;;;;5048912;28;20440;-82
2021/08/15 09:06:39;;;;;;;1.93;1.53;;;28.60;99.90;;;;;;5034583;28;20448;-81
2021/08/15 09:09:11;;;;;;;2.80;1.80;;;28.60;97.40;;;;;;5034316;28;20435;-82
2021/08/15 09:11:40;;;;;;;0.50;0.30;;;28.00;99.50;;;;;;5035007;28;20449;-81
2021/08/15 09:14:08;;;;;;;0.50;0.30;;;27.70;99.90;;;;;;5034156;28;20976;-81
2021/08/15 09:17:01;;;;;;;0.50;0.40;;;27.60;99.90;;;;;;5034540;28;20995;-85
2021/08/15 09:19:34;;;;;;;0.50;0.50;;;27.90;99.90;;;;;;5035608;28;20438;-83
2021/08/15 09:22:14;;;;;;;2.00;0.73;;;28.30;99.90;;;;;;5035441;28;20468;-84
2021/08/15 09:24:49;;;;;;;0.93;0.93;;;28.00;99.90;;;;;;5035171;28;20477;-83
2021/08/15 09:27:22;;;;;;;0.50;0.40;;;28.50;99.90;;;;;;5035709;28;20476;-82
2021/08/15 09:30:09;;;;;;;0.50;0.30;;;29.10;98.90;;;;;;5054701;28;20440;-81
2021/08/15 09:32:38;;;;;;;1.17;0.93;;;29.60;97.30;;;;;;5057543;28;20456;-81
2021/08/15 09:35:06;;;;;;;0.50;0.50;;;30.10;93.90;;;;;;5057105;28;20448;-82
2021/08/15 09:37:35;;;;;;;0.50;0.30;;;30.00;93.30;;;;;;5055660;28;20446;-80
2021/08/15 09:40:21;;;;;;;1.13;1.03;;;29.50;93.90;;;;;;5056862;28;20455;-80
2021/08/15 09:42:50;;;;;;;1.23;0.50;;;28.20;96.80;;;;;;5056596;28;20464;-81
2021/08/15 09:45:18;;;;;;;1.23;1.03;;;27.70;99.90;;;;;;5056790;28;20428;-80
2021/08/15 09:47:45;;;;;;;0.80;0.80;;;27.20;99.90;;;;;;5056430;28;20442;-81
2021/08/15 09:50:23;;;;;;;0.60;0.30;;;27.20;99.90;;;;;;5056845;28;20453;-82
2021/08/15 09:52:50;;;;;;;0.50;0.30;;;27.30;99.90;;;;;;5056486;28;20477;-82
2021/08/15 09:55:17;;;;;;;0.50;0.40;;;27.60;99.90;;;;;;5057357;28;20476;-82
2021/08/15 09:57:45;;;;;;;0.60;0.40;;;27.70;99.90;;;;;;5056976;28;20451;-82
2021/08/15 10:00:34;;;;;;;0.50;0.47;;;27.50;99.90;;;;;;5056949;28;20933;-81
2021/08/15 10:03:03;;;;;;;0.50;0.30;;;26.90;99.90;;;;;;5056852;28;20530;-82
2021/08/15 10:05:32;;;;;;;0.50;0.30;;;27.00;99.90;;;;;;5057110;28;20442;-81
2021/08/15 10:08:01;;;;;;;0.97;0.97;;;26.90;99.90;;;;;;5057931;28;20446;-82
2021/08/15 10:10:28;;;;;;;0.50;0.40;;;27.30;99.90;;;;;;5056935;28;20962;-82
2021/08/15 10:12:55;;;;;;;0.50;0.40;;;27.50;99.90;;;;;;5057873;28;20457;-83
2021/08/15 10:15:22;;;;;;;0.50;0.40;;;27.90;99.90;;;;;;5057713;28;20467;-82
2021/08/15 10:17:53;;;;;;;0.50;0.30;;;28.20;99.90;;;;;;5057691;28;20437;-82
2021/08/15 10:20:22;;;;;;;0.73;0.73;;;28.40;99.90;;;;;;5056846;28;20437;-82
2021/08/15 10:22:50;;;;;;;0.90;0.80;;;28.70;99.90;;;;;;5057469;28;20466;-81
2021/08/15 10:25:32;;;;;;;0.50;0.30;;;29.00;99.90;;;;;;5044257;28;20435;-82
2021/08/15 10:27:59;;;;;;;0.50;0.30;;;30.50;99.90;;;;;;5037298;28;20435;-83
2021/08/15 10:30:45;;;;;;;0.50;0.40;;;32.60;91.70;;;;;;5036944;28;20438;-83
2021/08/15 10:33:25;;;;;;;0.50;0.40;;;33.80;83.80;;;;;;5037627;28;20562;-83
2021/08/15 10:36:17;;;;;;;0.50;0.50;;;34.70;76.40;;;;;;5037437;28;20476;-83
2021/08/15 10:38:44;;;;;;;0.90;0.50;;;36.10;71.30;;;;;;5036934;28;20444;-82
2021/08/15 10:41:11;;;;;;;0.70;0.70;;;36.10;65.50;;;;;;5037254;28;20445;-82
2021/08/15 10:43:59;;;;;;;0.50;0.40;;;34.80;66.90;;;;;;5037669;28;20824;-81
2021/08/15 10:46:26;;;;;;;0.50;0.40;;;34.10;69.70;;;;;;5037346;28;20421;-81
2021/08/15 10:48:57;;;;;;;0.50;0.30;;;34.10;69.20;;;;;;5036977;28;20944;-82
2021/08/15 10:51:53;;;;;;;1.47;1.30;;;33.60;69.10;;;;;;5035877;28;20428;-82
2021/08/15 10:55:05;;;;;;;0.50;0.30;;;34.50;70.70;;;;;;4976939;28;20425;-83
2021/08/15 10:57:53;;;;;;;0.50;0.30;;;34.60;68.60;;;;;;5036954;28;20482;-80
2021/08/15 11:00:40;;;;;;;7.53;3.90;;;35.00;67.90;;;;;;5036611;28;20430;-83
2021/08/15 11:03:36;;;;;;;0.47;0.43;;;35.20;68.50;;;;;;5036934;28;20518;-81
2021/08/15 11:06:06;;;;;;;0.73;0.73;;;34.30;65.60;;;;;;5042075;28;20447;-82
2021/08/15 11:09:01;;;;;;;1.00;0.80;;;34.20;65.90;;;;;;5036054;28;20441;-78
2021/08/15 11:11:30;;;;;;;0.60;0.50;;;33.20;68.30;;;;;;4989659;28;20442;-82
2021/08/15 11:14:28;;;;;;;0.50;0.30;;;32.40;69.40;;;;;;5037280;28;20440;-82
2021/08/15 11:17:11;;;;;;;1.77;1.27;;;32.90;70.70;;;;;;5036381;28;20501;-82
2021/08/15 11:19:38;;;;;;;2.73;1.63;;;33.40;68.00;;;;;;5036067;28;20445;-79
2021/08/15 11:22:24;;;;;;;1.17;1.17;;;33.20;67.90;;;;;;5040743;28;20478;-81
2021/08/15 11:24:54;;;;;;;0.50;0.30;;;32.40;68.70;;;;;;5052905;28;20451;-83
2021/08/15 11:27:36;;;;;;;0.50;0.40;;;31.80;69.00;;;;;;5055258;28;20439;-82
2021/08/15 11:30:10;;;;;;;3.13;0.80;;;31.70;68.80;;;;;;5055490;28;20460;-82
2021/08/15 11:32:37;;;;;;;2.63;1.10;;;32.00;69.40;;;;;;5055620;28;20556;-82
2021/08/15 11:35:07;;;;;;;0.50;0.40;;;33.00;67.40;;;;;;5055807;28;20884;-82
2021/08/15 11:37:37;;;;;;;0.70;0.70;;;33.50;65.80;;;;;;5056846;28;20485;-80
2021/08/15 11:40:15;;;;;;;0.90;0.63;;;32.80;65.30;;;;;;5056300;28;20455;-81
2021/08/15 11:42:42;;;;;;;0.50;0.40;;;32.70;66.90;;;;;;5057113;28;20475;-82
2021/08/15 11:45:11;;;;;;;0.50;0.30;;;33.30;63.60;;;;;;5056307;28;20447;-83
2021/08/15 11:47:39;;;;;;;0.50;0.30;;;34.30;63.80;;;;;;5056764;28;20436;-82
2021/08/15 11:50:18;;;;;;;0.40;0.30;;;35.80;64.00;;;;;;5055024;28;20454;-82
2021/08/15 11:52:47;;;;;;;0.87;0.77;;;36.40;59.60;;;;;;5056313;28;20447;-82
2021/08/15 11:55:23;;;;;;;0.40;0.30;;;37.00;58.00;;;;;;5055968;28;20447;-83
2021/08/15 11:57:51;;;;;;;0.70;0.70;;;37.80;56.30;;;;;;5055505;28;20996;-83
2021/08/15 12:00:27;;;;;;;0.40;0.30;;;38.30;54.70;;;;;;5055107;28;20444;-82
2021/08/15 12:03:08;;;;;;;0.40;0.30;;;37.20;52.80;;;;;;5054712;28;20488;-83
2021/08/15 12:05:41;;;;;;;0.97;0.77;;;36.60;54.20;;;;;;5055544;28;20458;-82
2021/08/15 12:08:11;;;;;;;0.60;0.60;;;36.60;54.40;;;;;;5036139;28;20440;-83
2021/08/15 12:10:48;;;;;;;1.07;0.67;;;36.20;54.80;;;;;;5035461;28;20456;-80
2021/08/15 12:13:18;;;;;;;0.50;0.30;;;36.50;55.00;;;;;;5035368;28;20480;-83
2021/08/15 12:15:49;;;;;;;0.50;0.40;;;36.60;52.70;;;;;;5035660;28;20437;-81
2021/08/15 12:18:37;;;;;;;1.60;0.67;;;35.50;53.50;;;;;;5034914;28;20457;-82
2021/08/15 12:21:18;;;;;;;0.50;0.30;;;34.70;54.40;;;;;;5034710;28;20448;-82
2021/08/15 12:24:03;;;;;;;0.60;0.47;;;34.40;54.80;;;;;;5035266;28;20464;-81
2021/08/15 12:26:31;;;;;;;1.70;0.50;;;34.10;55.30;;;;;;5033254;28;20444;-82
2021/08/15 12:29:00;;;;;;;0.50;0.30;;;34.00;55.70;;;;;;5034645;28;20435;-82
2021/08/15 12:31:30;;;;;;;0.50;0.30;;;33.80;56.00;;;;;;5035228;28;20527;-81
2021/08/15 12:34:06;;;;;;;0.40;0.30;;;33.90;56.30;;;;;;5035343;28;20494;-82
2021/08/15 12:36:41;;;;;;;0.40;0.30;;;34.30;56.30;;;;;;5034381;28;20475;-82
2021/08/15 12:39:10;;;;;;;0.40;0.30;;;34.70;55.80;;;;;;5035392;28;20428;-81
2021/08/15 12:41:48;;;;;;;0.50;0.40;;;35.00;55.20;;;;;;5034461;28;20445;-82
2021/08/15 12:44:16;;;;;;;0.50;0.30;;;34.10;54.90;;;;;;5034719;28;20440;-81
2021/08/15 12:46:43;;;;;;;0.50;0.43;;;33.50;57.00;;;;;;5034804;28;20441;-81
2021/08/15 12:49:18;;;;;;;1.13;0.97;;;34.20;56.40;;;;;;5035428;28;20442;-80
2021/08/15 12:51:45;;;;;;;0.50;0.40;;;33.60;56.10;;;;;;5034858;28;20475;-83
2021/08/15 12:54:13;;;;;;;1.03;1.03;;;34.00;57.20;;;;;;5034791;28;20440;-81
2021/08/15 12:56:40;;;;;;;0.40;0.30;;;34.00;55.40;;;;;;5034989;28;20475;-80
2021/08/15 12:59:08;;;;;;;6.37;0.83;;;34.30;56.60;;;;;;5035146;28;20534;-82
2021/08/15 13:01:35;;;;;;;0.50;0.40;;;34.10;55.40;;;;;;5033696;28;20450;-81